Time;durP1;ratioP1;P1;durP2;ratioP2;P2;SDS_P1;SDS_P2;PMS_P1;PMS_P2;Temp;Humidity;BMP_temperature;BMP_pressure;BME280_temperature;BME280_humidity;BME280_pressure;Samples;Min_cycle;Max_cycle;Signal;HPM_P1;HPM_P2
2021/06/26 00:01:06;;;;;;;49.53;44.17;;;16.40;99.90;;;;;;5027882;28;20118;-46
2021/06/26 00:03:32;;;;;;;49.08;42.95;;;16.40;99.90;;;;;;5027144;28;20037;-46
2021/06/26 00:05:59;;;;;;;47.47;42.58;;;16.40;99.90;;;;;;5015402;28;20486;-47
2021/06/26 00:08:25;;;;;;;45.65;40.78;;;16.40;99.90;;;;;;5033935;28;20041;-47
2021/06/26 00:10:52;;;;;;;48.25;43.33;;;16.40;99.90;;;;;;5026752;28;20403;-49
2021/06/26 00:13:19;;;;;;;50.58;45.33;;;16.40;99.90;;;;;;5015813;28;20041;-48
2021/06/26 00:15:46;;;;;;;48.95;43.75;;;16.40;99.90;;;;;;5016921;28;20050;-46
2021/06/26 00:18:12;;;;;;;48.08;42.97;;;16.40;99.90;;;;;;5013819;28;20052;-46
2021/06/26 00:20:39;;;;;;;47.97;43.05;;;16.40;99.90;;;;;;5014315;28;20038;-47
2021/06/26 00:23:05;;;;;;;47.58;42.42;;;16.40;99.90;;;;;;5008671;28;20053;-48
2021/06/26 00:25:32;;;;;;;48.92;43.95;;;16.40;99.90;;;;;;5010364;28;20470;-49
2021/06/26 00:27:58;;;;;;;47.33;42.22;;;16.40;99.90;;;;;;5028024;28;20041;-46
2021/06/26 00:30:26;;;;;;;47.78;42.80;;;16.40;99.90;;;;;;5025416;28;20038;-48
2021/06/26 00:32:52;;;;;;;48.97;43.75;;;16.40;99.90;;;;;;5022343;28;20062;-48
2021/06/26 00:35:19;;;;;;;47.92;43.00;;;16.30;99.90;;;;;;5012761;28;20065;-47
2021/06/26 00:37:45;;;;;;;50.58;45.10;;;16.30;99.90;;;;;;5027696;28;20103;-46
2021/06/26 00:40:13;;;;;;;48.75;43.42;;;16.40;99.90;;;;;;5025870;28;20360;-47
2021/06/26 00:42:41;;;;;;;49.22;43.22;;;16.40;99.90;;;;;;5025682;28;20045;-48
2021/06/26 00:45:10;;;;;;;52.42;46.72;;;16.40;99.90;;;;;;5019027;28;20073;-48
2021/06/26 00:47:37;;;;;;;53.92;46.35;;;16.40;99.90;;;;;;5032942;28;20125;-47
2021/06/26 00:50:12;;;;;;;47.33;42.13;;;16.40;99.90;;;;;;5015193;28;20501;-49
2021/06/26 00:52:38;;;;;;;51.33;45.45;;;16.40;99.90;;;;;;5020357;28;20045;-47
2021/06/26 00:55:05;;;;;;;46.60;41.53;;;16.40;99.90;;;;;;5027686;28;20052;-50
2021/06/26 00:57:33;;;;;;;48.50;43.13;;;16.40;99.90;;;;;;5028155;28;20042;-46
2021/06/26 01:00:03;;;;;;;48.70;43.50;;;16.30;99.90;;;;;;5025714;28;20125;-46
2021/06/26 01:02:29;;;;;;;50.67;45.33;;;16.40;99.90;;;;;;5011605;28;20494;-47
2021/06/26 01:04:55;;;;;;;49.38;44.00;;;16.40;99.90;;;;;;5027530;28;20046;-46
2021/06/26 01:07:21;;;;;;;48.38;43.40;;;16.40;99.90;;;;;;5008546;28;20050;-48
2021/06/26 01:09:47;;;;;;;49.80;44.38;;;16.30;99.90;;;;;;5008680;28;20049;-46
2021/06/26 01:12:13;;;;;;;49.20;44.03;;;16.30;99.90;;;;;;5014284;28;20071;-46
2021/06/26 01:14:40;;;;;;;49.78;44.42;;;16.30;99.90;;;;;;5009708;28;20038;-46
2021/06/26 01:17:07;;;;;;;50.38;44.95;;;16.30;99.90;;;;;;5008006;28;20049;-47
2021/06/26 01:19:35;;;;;;;49.72;44.38;;;16.40;99.90;;;;;;5007526;28;20053;-49
2021/06/26 01:22:09;;;;;;;47.38;42.30;;;16.30;99.90;;;;;;5023333;28;20045;-47
2021/06/26 01:24:37;;;;;;;48.78;43.45;;;16.30;99.90;;;;;;5026205;28;20053;-46
2021/06/26 01:27:06;;;;;;;49.03;43.65;;;16.40;99.90;;;;;;5023570;28;20101;-47
2021/06/26 01:29:33;;;;;;;47.15;42.22;;;16.40;99.90;;;;;;5026961;28;20136;-47
2021/06/26 01:31:59;;;;;;;49.60;44.38;;;16.40;99.90;;;;;;5014669;28;20607;-46
2021/06/26 01:34:25;;;;;;;45.95;41.25;;;16.40;99.90;;;;;;5007993;28;20133;-47
2021/06/26 01:36:51;;;;;;;46.63;41.83;;;16.40;99.90;;;;;;5007038;28;20508;-47
2021/06/26 01:39:18;;;;;;;44.95;40.35;;;16.40;99.90;;;;;;5025686;28;20061;-47
2021/06/26 01:41:44;;;;;;;45.03;40.33;;;16.30;99.90;;;;;;5016686;28;20060;-47
2021/06/26 01:44:10;;;;;;;45.65;40.85;;;16.40;99.90;;;;;;5010465;28;20042;-48
2021/06/26 01:46:38;;;;;;;46.50;41.42;;;16.40;99.90;;;;;;5008489;28;20057;-49
2021/06/26 01:49:12;;;;;;;44.20;39.47;;;16.50;99.90;;;;;;5025158;28;20096;-46
2021/06/26 01:51:39;;;;;;;46.28;41.35;;;16.40;99.90;;;;;;5026462;28;20116;-46
2021/06/26 01:54:07;;;;;;;45.63;40.97;;;16.40;99.90;;;;;;5009347;28;20046;-46
2021/06/26 01:56:35;;;;;;;46.88;41.80;;;16.40;99.90;;;;;;5025489;28;20068;-47
2021/06/26 01:59:01;;;;;;;45.85;41.08;;;16.40;99.90;;;;;;5025174;28;20065;-48
2021/06/26 02:01:27;;;;;;;48.97;42.97;;;16.40;99.90;;;;;;5026719;28;20045;-46
2021/06/26 02:03:53;;;;;;;47.45;42.50;;;16.30;99.90;;;;;;5021967;28;20045;-47
2021/06/26 02:06:20;;;;;;;45.22;40.40;;;16.30;99.90;;;;;;5017427;28;20497;-47
2021/06/26 02:08:46;;;;;;;47.63;42.13;;;16.40;99.90;;;;;;5006893;28;20680;-49
2021/06/26 02:11:12;;;;;;;51.40;43.15;;;16.40;99.90;;;;;;5013130;28;20038;-47
2021/06/26 02:13:38;;;;;;;47.03;41.90;;;16.40;99.90;;;;;;5019266;28;20054;-48
2021/06/26 02:16:05;;;;;;;47.72;42.00;;;16.30;99.90;;;;;;5008231;28;20042;-46
2021/06/26 02:18:31;;;;;;;46.60;41.53;;;16.30;99.90;;;;;;5020799;28;20046;-46
2021/06/26 02:20:58;;;;;;;49.53;43.15;;;16.30;99.90;;;;;;5030416;28;20045;-47
2021/06/26 02:23:24;;;;;;;47.60;42.45;;;16.30;99.90;;;;;;5026357;28;20064;-47
2021/06/26 02:25:50;;;;;;;47.90;42.90;;;16.30;99.90;;;;;;5018672;28;20512;-46
2021/06/26 02:28:16;;;;;;;46.42;41.03;;;16.40;99.90;;;;;;5023053;28;20045;-47
2021/06/26 02:30:42;;;;;;;47.03;41.97;;;16.40;99.90;;;;;;5024323;28;20045;-46
2021/06/26 02:33:08;;;;;;;47.53;42.10;;;16.30;99.90;;;;;;5025789;28;20506;-48
2021/06/26 02:35:34;;;;;;;48.53;42.88;;;16.30;99.90;;;;;;5023847;28;20045;-47
2021/06/26 02:38:00;;;;;;;52.40;44.70;;;16.30;99.90;;;;;;5033234;28;20362;-45
2021/06/26 02:40:27;;;;;;;53.10;44.53;;;16.30;99.90;;;;;;5025052;28;20049;-47
2021/06/26 02:43:00;;;;;;;48.40;43.15;;;16.30;99.90;;;;;;5018531;28;20041;-45
2021/06/26 02:45:26;;;;;;;48.42;42.40;;;16.30;99.90;;;;;;5025078;28;20049;-48
2021/06/26 02:47:53;;;;;;;48.85;42.47;;;16.30;99.90;;;;;;5007606;28;20077;-46
2021/06/26 02:50:19;;;;;;;50.78;43.17;;;16.30;99.90;;;;;;5008901;28;20050;-48
2021/06/26 02:52:46;;;;;;;49.75;42.60;;;16.30;99.90;;;;;;5006068;28;20512;-46
2021/06/26 02:55:13;;;;;;;46.15;41.15;;;16.30;99.90;;;;;;5008457;28;20057;-51
2021/06/26 02:57:39;;;;;;;44.45;39.80;;;16.30;99.90;;;;;;5018450;28;20065;-46
2021/06/26 03:00:07;;;;;;;48.65;41.90;;;16.30;99.90;;;;;;5008148;28;20045;-48
2021/06/26 03:02:34;;;;;;;47.75;42.63;;;16.30;99.90;;;;;;5025703;28;20041;-48
2021/06/26 03:05:00;;;;;;;47.13;42.08;;;16.30;99.90;;;;;;5026574;28;20037;-47
2021/06/26 03:07:26;;;;;;;48.42;43.28;;;16.30;99.90;;;;;;5015140;28;20168;-47
2021/06/26 03:09:52;;;;;;;46.65;41.72;;;16.30;99.90;;;;;;5027788;28;20064;-49
2021/06/26 03:12:19;;;;;;;46.97;41.95;;;16.30;99.90;;;;;;5023456;28;20050;-48
2021/06/26 03:14:45;;;;;;;47.53;42.55;;;16.30;99.90;;;;;;5019095;28;20045;-48
2021/06/26 03:17:11;;;;;;;47.75;41.67;;;16.40;99.90;;;;;;5023427;28;20053;-46
2021/06/26 03:19:40;;;;;;;50.50;42.78;;;16.30;99.90;;;;;;5023007;28;20049;-47
2021/06/26 03:22:07;;;;;;;50.58;45.03;;;16.30;99.90;;;;;;5013508;28;20050;-46
2021/06/26 03:24:33;;;;;;;45.60;40.65;;;16.30;99.90;;;;;;5010245;28;20046;-48
2021/06/26 03:26:59;;;;;;;48.25;43.15;;;16.30;99.90;;;;;;5025635;28;20042;-46
2021/06/26 03:29:25;;;;;;;49.65;44.30;;;16.30;99.90;;;;;;5025897;28;20065;-45
2021/06/26 03:31:51;;;;;;;48.63;43.35;;;16.30;99.90;;;;;;5026986;28;20091;-48
2021/06/26 03:34:18;;;;;;;46.85;41.80;;;16.30;99.90;;;;;;5027748;28;20045;-49
2021/06/26 03:36:44;;;;;;;45.58;40.60;;;16.30;99.90;;;;;;5029077;28;20179;-47
2021/06/26 03:39:11;;;;;;;48.30;43.10;;;16.30;99.90;;;;;;5015718;28;20046;-48
2021/06/26 03:41:37;;;;;;;48.10;42.97;;;16.30;99.90;;;;;;5020289;28;20390;-48
2021/06/26 03:44:23;;;;;;;48.40;42.55;;;16.30;99.90;;;;;;5019461;28;20053;-47
2021/06/26 03:46:50;;;;;;;48.92;43.00;;;16.30;99.90;;;;;;5014710;28;20050;-47
2021/06/26 03:49:16;;;;;;;48.22;42.63;;;16.30;99.90;;;;;;5015989;28;20056;-47
2021/06/26 03:51:42;;;;;;;47.80;42.58;;;16.30;99.90;;;;;;5021679;28;20053;-48
2021/06/26 03:54:08;;;;;;;52.00;43.83;;;16.30;99.90;;;;;;5027309;28;20072;-47
2021/06/26 03:56:35;;;;;;;47.90;42.20;;;16.30;99.90;;;;;;5023381;28;20065;-47
2021/06/26 03:59:02;;;;;;;49.45;43.80;;;16.30;99.90;;;;;;5022324;28;20045;-46
2021/06/26 04:01:28;;;;;;;49.28;43.97;;;16.40;99.90;;;;;;5009767;28;20042;-51
2021/06/26 04:03:54;;;;;;;49.65;43.92;;;16.30;99.90;;;;;;5017707;28;20050;-45
2021/06/26 04:06:20;;;;;;;49.55;43.42;;;16.40;99.90;;;;;;5021381;28;20052;-47
2021/06/26 04:08:46;;;;;;;52.00;43.20;;;16.40;99.90;;;;;;5032723;28;20374;-47
2021/06/26 04:11:33;;;;;;;51.17;44.97;;;16.40;99.90;;;;;;5011197;28;20042;-47
2021/06/26 04:13:59;;;;;;;46.97;41.85;;;16.40;99.90;;;;;;5025604;28;20049;-47
2021/06/26 04:16:25;;;;;;;49.97;44.00;;;16.30;99.90;;;;;;5028868;28;20469;-46
2021/06/26 04:18:51;;;;;;;48.50;43.33;;;16.40;99.90;;;;;;5012344;28;20049;-47
2021/06/26 04:21:17;;;;;;;50.70;44.38;;;16.50;99.90;;;;;;5010728;28;20050;-47
2021/06/26 04:23:43;;;;;;;46.75;41.72;;;16.50;99.90;;;;;;5007431;28;20545;-48
2021/06/26 04:26:11;;;;;;;46.90;41.83;;;16.50;99.90;;;;;;5016708;28;20041;-46
2021/06/26 04:28:40;;;;;;;47.50;42.53;;;16.60;99.90;;;;;;5009321;28;20049;-49
2021/06/26 04:31:06;;;;;;;47.40;42.25;;;16.60;99.90;;;;;;5016035;28;20739;-46
2021/06/26 04:33:32;;;;;;;51.97;43.42;;;16.60;99.90;;;;;;5008986;28;20054;-46
2021/06/26 04:35:58;;;;;;;49.63;43.55;;;16.70;99.90;;;;;;5008643;28;20566;-48
2021/06/26 04:38:24;;;;;;;48.42;43.22;;;16.70;99.90;;;;;;5015806;28;20059;-49
2021/06/26 04:40:52;;;;;;;46.08;41.38;;;16.80;99.90;;;;;;5009828;28;20037;-46
2021/06/26 04:43:19;;;;;;;50.83;43.15;;;16.80;99.90;;;;;;5026095;28;20049;-47
2021/06/26 04:45:47;;;;;;;48.03;43.10;;;16.80;99.90;;;;;;5012858;28;20049;-46
2021/06/26 04:48:17;;;;;;;47.10;42.20;;;16.90;99.90;;;;;;5027952;28;20049;-46
2021/06/26 04:50:43;;;;;;;48.28;43.00;;;17.00;99.90;;;;;;5034900;28;20132;-45
2021/06/26 04:53:10;;;;;;;47.13;42.22;;;17.10;99.90;;;;;;5023935;28;20509;-49
2021/06/26 04:55:36;;;;;;;48.90;43.80;;;17.10;99.90;;;;;;5022542;28;20364;-46
2021/06/26 04:58:02;;;;;;;44.03;39.28;;;17.10;99.90;;;;;;5021560;28;20099;-47
2021/06/26 05:00:28;;;;;;;46.38;41.33;;;17.10;99.90;;;;;;5016257;28;20084;-46
2021/06/26 05:02:54;;;;;;;44.35;39.95;;;17.10;99.90;;;;;;5024301;28;20057;-47
2021/06/26 05:05:20;;;;;;;45.97;40.92;;;17.10;99.90;;;;;;5015366;28;20045;-46
2021/06/26 05:07:46;;;;;;;46.10;39.60;;;17.20;99.90;;;;;;5025864;28;20049;-47
2021/06/26 05:10:12;;;;;;;47.63;42.35;;;17.20;99.90;;;;;;5019546;28;20046;-46
2021/06/26 05:12:43;;;;;;;46.85;41.80;;;17.20;99.90;;;;;;5020367;28;20544;-49
2021/06/26 05:15:10;;;;;;;47.53;42.45;;;17.20;99.90;;;;;;5024713;28;20053;-47
2021/06/26 05:17:39;;;;;;;46.55;41.10;;;17.20;99.90;;;;;;5033511;28;20049;-46
2021/06/26 05:20:06;;;;;;;48.42;43.15;;;17.30;99.90;;;;;;5027598;28;20056;-47
2021/06/26 05:22:32;;;;;;;46.22;41.08;;;17.40;99.90;;;;;;5027714;28;20520;-51
2021/06/26 05:24:59;;;;;;;47.83;42.58;;;17.50;99.90;;;;;;5024995;28;20049;-50
2021/06/26 05:27:25;;;;;;;44.33;39.70;;;17.50;99.90;;;;;;5027211;28;20045;-48
2021/06/26 05:29:51;;;;;;;42.47;38.03;;;17.50;99.90;;;;;;5014701;28;20054;-48
2021/06/26 05:32:17;;;;;;;44.67;39.92;;;17.60;99.90;;;;;;5007380;28;20147;-47
2021/06/26 05:34:43;;;;;;;44.83;39.92;;;17.60;99.90;;;;;;5008602;28;20497;-50
2021/06/26 05:37:09;;;;;;;47.20;42.33;;;17.60;99.90;;;;;;5007432;28;20073;-49
2021/06/26 05:39:35;;;;;;;45.75;40.97;;;17.70;99.90;;;;;;5007248;28;20049;-49
2021/06/26 05:42:01;;;;;;;46.28;41.40;;;17.70;99.90;;;;;;5021213;28;20037;-49
2021/06/26 05:44:28;;;;;;;45.17;40.53;;;17.80;99.90;;;;;;5021488;28;20490;-48
2021/06/26 05:46:55;;;;;;;46.30;41.30;;;17.80;99.90;;;;;;5011835;28;20050;-52
2021/06/26 05:49:21;;;;;;;46.67;41.75;;;17.70;99.90;;;;;;5007151;28;20046;-49
2021/06/26 05:51:47;;;;;;;49.13;44.03;;;17.80;99.90;;;;;;5006192;28;20045;-47
2021/06/26 05:54:14;;;;;;;47.17;41.75;;;17.80;99.90;;;;;;5008435;28;20157;-51
2021/06/26 05:56:40;;;;;;;43.13;38.72;;;17.90;99.90;;;;;;5012812;28;20124;-51
2021/06/26 05:59:06;;;;;;;45.33;40.67;;;17.90;99.90;;;;;;5022370;28;20053;-51
2021/06/26 06:01:32;;;;;;;44.40;39.83;;;17.90;99.90;;;;;;5017581;28;20050;-47
2021/06/26 06:03:58;;;;;;;45.50;40.65;;;18.10;99.90;;;;;;5015059;28;20108;-45
2021/06/26 06:06:24;;;;;;;46.28;41.35;;;18.10;99.90;;;;;;5007266;28;20070;-48
2021/06/26 06:08:50;;;;;;;86.75;77.50;;;18.10;99.90;;;;;;5017236;28;20391;-47
2021/06/26 06:11:17;;;;;;;47.92;42.85;;;18.10;99.90;;;;;;5017902;28;20046;-50
2021/06/26 06:13:43;;;;;;;48.60;43.42;;;18.20;99.90;;;;;;5026800;28;20401;-48
2021/06/26 06:16:09;;;;;;;49.80;44.58;;;18.30;99.90;;;;;;5027211;28;20049;-50
2021/06/26 06:18:35;;;;;;;49.13;43.60;;;18.40;99.90;;;;;;5009101;28;20057;-50
2021/06/26 06:21:01;;;;;;;52.22;46.65;;;18.40;99.90;;;;;;5007417;28;20046;-49
2021/06/26 06:23:27;;;;;;;45.53;40.80;;;18.60;99.90;;;;;;5017853;28;20088;-46
2021/06/26 06:25:54;;;;;;;46.70;41.83;;;18.80;99.90;;;;;;5026539;28;20050;-46
2021/06/26 06:28:20;;;;;;;48.22;43.25;;;18.80;99.90;;;;;;5027486;28;20168;-48
2021/06/26 06:30:48;;;;;;;45.47;40.58;;;18.90;99.90;;;;;;5027881;28;20033;-49
2021/06/26 06:33:14;;;;;;;49.95;44.60;;;19.00;99.90;;;;;;5027138;28;20037;-48
2021/06/26 06:35:40;;;;;;;51.90;46.58;;;19.10;99.90;;;;;;5023248;28;20145;-45
2021/06/26 06:38:06;;;;;;;53.70;48.08;;;19.30;99.90;;;;;;5020376;28;20045;-51
2021/06/26 06:40:33;;;;;;;74.28;66.78;;;19.40;99.90;;;;;;5021275;28;20049;-48
2021/06/26 06:42:59;;;;;;;45.08;40.47;;;19.40;99.90;;;;;;5017872;28;20065;-48
2021/06/26 06:45:25;;;;;;;44.95;40.33;;;19.60;99.90;;;;;;5032362;28;20136;-47
2021/06/26 06:47:51;;;;;;;45.30;40.47;;;19.70;99.90;;;;;;5030458;28;20050;-50
2021/06/26 06:50:18;;;;;;;46.70;41.85;;;19.70;99.90;;;;;;5029671;28;20041;-45
2021/06/26 06:52:44;;;;;;;45.25;40.55;;;19.70;99.90;;;;;;5013903;28;20053;-49
2021/06/26 06:55:11;;;;;;;44.78;40.08;;;19.80;99.90;;;;;;5017444;28;20490;-47
2021/06/26 06:57:37;;;;;;;44.03;39.78;;;19.90;99.90;;;;;;5028363;28;20050;-49
2021/06/26 07:00:07;;;;;;;44.30;39.80;;;20.00;99.90;;;;;;5026449;28;20539;-48
2021/06/26 07:02:35;;;;;;;44.60;40.03;;;20.20;99.90;;;;;;5029597;28;20075;-50
2021/06/26 07:05:02;;;;;;;45.13;40.08;;;20.30;99.90;;;;;;5029858;28;20124;-44
2021/06/26 07:07:28;;;;;;;80.60;72.55;;;20.40;99.90;;;;;;5029055;28;20041;-46
2021/06/26 07:09:56;;;;;;;43.33;38.85;;;20.40;99.90;;;;;;5029370;28;20073;-46
2021/06/26 07:12:23;;;;;;;46.50;41.88;;;20.60;99.90;;;;;;5026744;28;20080;-51
2021/06/26 07:14:49;;;;;;;46.20;41.33;;;20.70;99.90;;;;;;5031699;28;20064;-45
2021/06/26 07:17:15;;;;;;;44.50;40.08;;;20.90;99.90;;;;;;5028858;28;20179;-48
2021/06/26 07:19:41;;;;;;;49.88;44.90;;;20.80;99.90;;;;;;5029285;28;20073;-46
2021/06/26 07:22:07;;;;;;;42.03;37.67;;;21.00;99.90;;;;;;5029860;28;20044;-47
2021/06/26 07:24:33;;;;;;;41.60;37.47;;;21.10;99.90;;;;;;5040157;28;20106;-45
2021/06/26 07:26:59;;;;;;;38.70;34.53;;;21.60;99.90;;;;;;5031559;28;20232;-47
2021/06/26 07:29:26;;;;;;;40.25;36.22;;;22.00;99.90;;;;;;5024122;28;20038;-46
2021/06/26 07:31:54;;;;;;;38.05;34.22;;;22.40;99.90;;;;;;5020828;28;20063;-48
2021/06/26 07:34:20;;;;;;;37.55;33.95;;;22.60;99.90;;;;;;5031094;28;20057;-42
2021/06/26 07:36:46;;;;;;;36.30;32.85;;;22.80;99.90;;;;;;5027910;28;20052;-45
2021/06/26 07:39:12;;;;;;;36.63;33.08;;;23.00;99.90;;;;;;5016874;28;20462;-46
2021/06/26 07:41:39;;;;;;;59.40;53.50;;;23.10;99.90;;;;;;5029072;28;20045;-43
2021/06/26 07:44:05;;;;;;;37.92;34.45;;;22.90;98.30;;;;;;5027443;28;20049;-47
2021/06/26 07:46:34;;;;;;;35.55;32.25;;;23.00;98.70;;;;;;5027420;28;20053;-43
2021/06/26 07:49:02;;;;;;;33.15;30.05;;;22.90;98.80;;;;;;5026353;28;20045;-43
2021/06/26 07:51:28;;;;;;;34.42;31.15;;;23.00;97.30;;;;;;5027403;28;20057;-43
2021/06/26 07:53:56;;;;;;;33.47;30.20;;;23.10;97.30;;;;;;5025302;28;20034;-48
2021/06/26 07:56:22;;;;;;;36.83;33.22;;;23.30;98.30;;;;;;5027621;28;20045;-49
2021/06/26 07:58:48;;;;;;;33.92;30.58;;;23.60;98.50;;;;;;5030730;28;20064;-45
2021/06/26 08:01:16;;;;;;;35.13;31.85;;;23.40;97.50;;;;;;5022092;28;20033;-47
2021/06/26 08:03:42;;;;;;;35.28;31.95;;;23.70;96.80;;;;;;5028143;28;20039;-46
2021/06/26 08:06:08;;;;;;;31.23;28.38;;;24.10;96.80;;;;;;5020777;28;20034;-50
2021/06/26 08:08:34;;;;;;;29.48;26.67;;;24.20;95.90;;;;;;5027487;28;20041;-50
2021/06/26 08:11:00;;;;;;;28.55;25.75;;;24.30;94.10;;;;;;5022011;28;20116;-46
2021/06/26 08:13:27;;;;;;;29.25;26.65;;;24.50;93.50;;;;;;5017992;28;20042;-47
2021/06/26 08:15:53;;;;;;;21.08;19.02;;;24.50;93.60;;;;;;5028550;28;20764;-47
2021/06/26 08:18:19;;;;;;;22.20;20.15;;;24.60;89.10;;;;;;5028120;28;20041;-50
2021/06/26 08:20:47;;;;;;;23.27;21.13;;;24.90;90.80;;;;;;5019827;28;20173;-47
2021/06/26 08:23:16;;;;;;;25.25;22.95;;;25.10;90.10;;;;;;5031863;28;20048;-48
2021/06/26 08:25:43;;;;;;;29.15;26.45;;;25.30;88.90;;;;;;5033724;28;20041;-46
2021/06/26 08:28:09;;;;;;;33.45;30.35;;;25.40;88.80;;;;;;5014928;28;20045;-48
2021/06/26 08:30:35;;;;;;;28.75;26.17;;;25.60;87.70;;;;;;5026299;28;20045;-46
2021/06/26 08:33:01;;;;;;;34.03;30.75;;;25.60;88.20;;;;;;5028400;28;20167;-51
2021/06/26 08:35:30;;;;;;;28.20;25.52;;;25.70;89.60;;;;;;5028360;28;20049;-48
2021/06/26 08:37:56;;;;;;;26.25;23.75;;;25.70;90.50;;;;;;5020520;28;20038;-48
2021/06/26 08:40:22;;;;;;;24.40;22.25;;;25.80;90.80;;;;;;5013681;28;20073;-47
2021/06/26 08:42:49;;;;;;;27.33;24.67;;;25.80;86.30;;;;;;5027887;28;20045;-47
2021/06/26 08:45:18;;;;;;;22.25;20.27;;;25.90;89.50;;;;;;5011114;28;20041;-51
2021/06/26 08:47:47;;;;;;;18.65;16.95;;;26.10;85.20;;;;;;5008683;28;20046;-50
2021/06/26 08:50:14;;;;;;;19.52;17.85;;;26.30;81.50;;;;;;5017417;28;20056;-47
2021/06/26 08:52:41;;;;;;;18.77;16.35;;;26.50;78.70;;;;;;5028639;28;20083;-50
2021/06/26 08:55:09;;;;;;;19.77;17.83;;;26.30;79.00;;;;;;5028283;28;20053;-49
2021/06/26 08:57:37;;;;;;;16.52;14.95;;;26.20;78.80;;;;;;5028025;28;20147;-53
2021/06/26 09:00:15;;;;;;;17.33;15.52;;;26.20;78.50;;;;;;5024264;28;20053;-52
2021/06/26 09:02:42;;;;;;;19.38;17.58;;;26.50;79.50;;;;;;5033051;28;20048;-52
2021/06/26 09:05:09;;;;;;;22.00;20.10;;;26.50;80.10;;;;;;5027622;28;20077;-54
2021/06/26 09:07:38;;;;;;;15.45;13.95;;;26.70;76.60;;;;;;5026656;28;20041;-53
2021/06/26 09:10:19;;;;;;;14.35;13.05;;;26.60;72.90;;;;;;5014536;28;20053;-51
2021/06/26 09:12:48;;;;;;;11.55;10.38;;;26.50;73.10;;;;;;5027751;28;20115;-51
2021/06/26 09:15:30;;;;;;;12.30;11.05;;;26.20;75.50;;;;;;5027868;28;20068;-52
2021/06/26 09:17:56;;;;;;;12.88;11.68;;;26.10;72.50;;;;;;5027345;28;20045;-51
2021/06/26 09:20:40;;;;;;;11.10;10.02;;;26.30;72.50;;;;;;5027764;28;20633;-52
2021/06/26 09:23:32;;;;;;;11.27;10.27;;;26.20;68.80;;;;;;5027514;28;20049;-54
2021/06/26 09:26:10;;;;;;;11.18;10.07;;;26.20;72.90;;;;;;5029888;28;20033;-52
2021/06/26 09:28:38;;;;;;;10.93;9.93;;;26.30;71.10;;;;;;5019423;28;20045;-53
2021/06/26 09:31:14;;;;;;;13.43;11.10;;;26.20;73.50;;;;;;5020516;28;20092;-52
2021/06/26 09:33:40;;;;;;;11.52;10.43;;;26.50;73.10;;;;;;5027191;28;20202;-52
2021/06/26 09:36:10;;;;;;;8.98;7.97;;;26.40;71.00;;;;;;5027069;28;20060;-50
2021/06/26 09:38:55;;;;;;;5.30;4.35;;;26.10;70.30;;;;;;5021535;28;20056;-51
2021/06/26 09:41:21;;;;;;;5.55;4.50;;;26.20;67.10;;;;;;5032199;28;20572;-50
2021/06/26 09:43:47;;;;;;;11.35;9.52;;;26.40;67.80;;;;;;5024138;28;20096;-54
2021/06/26 09:46:16;;;;;;;11.32;9.60;;;26.10;71.80;;;;;;5030419;28;20128;-53
2021/06/26 09:48:53;;;;;;;11.43;10.30;;;26.20;71.20;;;;;;5026624;28;20465;-54
2021/06/26 09:51:29;;;;;;;11.15;9.98;;;25.90;70.30;;;;;;5027276;28;20378;-53
2021/06/26 09:54:00;;;;;;;10.55;9.50;;;26.20;71.80;;;;;;5026416;28;20037;-52
2021/06/26 09:56:41;;;;;;;9.63;8.73;;;26.00;71.00;;;;;;5019080;28;20041;-48
2021/06/26 09:59:08;;;;;;;26.95;24.45;;;26.00;73.90;;;;;;5020656;28;20045;-52
2021/06/26 10:01:36;;;;;;;34.53;31.23;;;26.20;72.30;;;;;;5023154;28;20060;-52
2021/06/26 10:04:04;;;;;;;9.88;8.98;;;26.80;69.60;;;;;;5031913;28;20048;-54
2021/06/26 10:06:32;;;;;;;6.70;6.00;;;27.20;66.50;;;;;;5031123;28;20700;-53
2021/06/26 10:08:59;;;;;;;6.20;5.13;;;27.30;65.00;;;;;;5026440;28;20068;-53
2021/06/26 10:11:29;;;;;;;11.02;9.82;;;27.30;65.90;;;;;;5019565;28;20087;-54
2021/06/26 10:13:55;;;;;;;8.38;7.57;;;27.60;64.40;;;;;;5028862;28;20094;-54
2021/06/26 10:16:23;;;;;;;6.95;4.82;;;28.00;61.70;;;;;;5027010;28;20052;-52
2021/06/26 10:18:51;;;;;;;7.53;4.68;;;28.50;60.60;;;;;;5030629;28;20041;-52
2021/06/26 10:21:19;;;;;;;6.18;3.65;;;28.50;59.30;;;;;;5027029;28;20386;-54
2021/06/26 10:23:46;;;;;;;6.07;4.60;;;28.20;59.50;;;;;;5032226;28;20094;-53
2021/06/26 10:26:13;;;;;;;4.90;3.40;;;28.30;59.80;;;;;;5029351;28;20077;-50
2021/06/26 10:29:01;;;;;;;3.67;3.00;;;28.30;60.00;;;;;;5027550;28;20046;-49
2021/06/26 10:31:48;;;;;;;4.60;3.63;;;28.30;56.60;;;;;;5021530;28;20068;-55
2021/06/26 10:34:17;;;;;;;3.45;2.85;;;28.40;58.40;;;;;;5028328;28;20048;-54
2021/06/26 10:36:54;;;;;;;3.03;2.30;;;28.20;57.80;;;;;;5031021;28;20051;-55
2021/06/26 10:39:26;;;;;;;5.57;3.97;;;28.20;56.40;;;;;;5031127;28;20045;-51
2021/06/26 10:42:04;;;;;;;8.05;6.72;;;28.10;58.60;;;;;;5019697;28;20070;-53
2021/06/26 10:44:53;;;;;;;5.03;3.88;;;27.80;57.70;;;;;;5015638;28;20517;-55
2021/06/26 10:47:41;;;;;;;4.80;3.90;;;27.80;62.10;;;;;;5018873;28;20045;-55
2021/06/26 10:50:11;;;;;;;4.40;3.47;;;27.90;61.60;;;;;;5008380;28;20045;-52
2021/06/26 10:52:51;;;;;;;4.68;3.45;;;27.90;62.40;;;;;;5009453;28;20069;-53
2021/06/26 10:55:27;;;;;;;3.75;3.15;;;28.10;61.30;;;;;;5020469;28;20053;-52
2021/06/26 10:57:54;;;;;;;5.05;3.88;;;28.00;60.90;;;;;;5027104;28;20061;-51
2021/06/26 11:00:38;;;;;;;6.25;4.53;;;27.70;61.00;;;;;;5029938;28;20398;-53
2021/06/26 11:03:23;;;;;;;5.85;4.03;;;27.40;58.60;;;;;;5030321;28;20060;-56
2021/06/26 11:05:51;;;;;;;5.28;4.10;;;27.40;59.00;;;;;;5025527;28;20049;-54
2021/06/26 11:08:19;;;;;;;8.30;6.55;;;27.60;60.40;;;;;;5029596;28;20061;-50
2021/06/26 11:10:57;;;;;;;4.82;4.32;;;27.50;60.30;;;;;;5029719;28;20046;-54
2021/06/26 11:13:28;;;;;;;6.97;6.20;;;27.80;59.30;;;;;;5032081;28;20041;-53
2021/06/26 11:15:56;;;;;;;13.07;11.68;;;27.80;58.40;;;;;;5026470;28;20136;-54
2021/06/26 11:18:24;;;;;;;13.98;12.70;;;27.60;59.10;;;;;;5009947;28;20045;-54
2021/06/26 11:20:51;;;;;;;4.15;3.05;;;27.50;58.40;;;;;;5008677;28;20513;-51
2021/06/26 11:23:17;;;;;;;5.53;4.40;;;27.60;59.30;;;;;;5015772;28;20446;-54
2021/06/26 11:25:46;;;;;;;4.30;3.03;;;27.70;59.50;;;;;;5009910;28;20053;-53
2021/06/26 11:28:14;;;;;;;3.90;3.50;;;27.70;60.40;;;;;;5023933;28;20080;-51
2021/06/26 11:30:43;;;;;;;3.08;2.63;;;27.90;58.40;;;;;;5029087;28;20077;-53
2021/06/26 11:33:10;;;;;;;5.45;4.47;;;28.00;59.50;;;;;;5011808;28;20141;-49
2021/06/26 11:35:42;;;;;;;7.78;6.60;;;28.10;58.40;;;;;;5015168;28;20062;-48
2021/06/26 11:38:17;;;;;;;9.45;7.93;;;28.40;58.70;;;;;;5026811;28;20111;-47
2021/06/26 11:40:44;;;;;;;4.63;3.25;;;28.30;57.40;;;;;;5028577;28;20087;-50
2021/06/26 11:43:11;;;;;;;4.85;3.13;;;28.60;56.50;;;;;;5030777;28;20552;-49
2021/06/26 11:45:39;;;;;;;4.32;3.80;;;28.50;58.10;;;;;;5031515;28;20049;-50
2021/06/26 11:48:17;;;;;;;4.60;3.13;;;28.70;56.00;;;;;;5019918;28;20068;-49
2021/06/26 11:50:48;;;;;;;6.45;5.68;;;28.70;56.80;;;;;;5026851;28;20067;-49
2021/06/26 11:53:15;;;;;;;4.38;3.75;;;28.90;56.00;;;;;;5027286;28;20045;-49
2021/06/26 11:56:01;;;;;;;11.93;10.40;;;29.20;56.60;;;;;;5025403;28;20054;-51
2021/06/26 11:58:44;;;;;;;73.50;67.45;;;29.30;57.30;;;;;;5027634;28;20048;-50
2021/06/26 12:01:14;;;;;;;17.33;15.82;;;29.60;55.70;;;;;;5017723;28;20515;-46
2021/06/26 12:03:42;;;;;;;7.97;7.22;;;29.20;57.80;;;;;;5017142;28;20046;-50
2021/06/26 12:06:13;;;;;;;4.47;4.03;;;29.10;57.10;;;;;;5014666;28;20042;-49
2021/06/26 12:08:54;;;;;;;4.53;3.90;;;29.30;57.10;;;;;;5010078;28;20406;-49
2021/06/26 12:11:20;;;;;;;;;;;30.10;55.50;;;;;;5009679;28;20057;-47
2021/06/26 12:13:48;;;;;;;4.40;3.08;;;29.60;53.70;;;;;;5008281;28;19921;-50
2021/06/26 12:16:18;;;;;;;3.45;3.08;;;29.80;56.20;;;;;;5023419;28;20049;-51
2021/06/26 12:19:11;;;;;;;4.18;3.00;;;29.50;53.30;;;;;;5019491;28;21088;-49
2021/06/26 12:21:49;;;;;;;7.15;5.40;;;29.50;52.90;;;;;;5016703;28;20147;-48
2021/06/26 12:24:42;;;;;;;3.60;2.85;;;28.70;53.30;;;;;;5022988;28;20038;-50
2021/06/26 12:27:14;;;;;;;3.72;2.58;;;29.20;54.30;;;;;;5026858;28;20092;-48
2021/06/26 12:29:53;;;;;;;4.25;2.45;;;29.40;53.40;;;;;;5022347;28;20053;-49
2021/06/26 12:32:27;;;;;;;3.88;2.30;;;29.40;51.90;;;;;;5027909;28;20045;-50
2021/06/26 12:34:54;;;;;;;3.00;2.50;;;29.00;52.20;;;;;;5023693;28;20053;-50
2021/06/26 12:37:31;;;;;;;3.70;2.05;;;29.60;53.10;;;;;;5028100;28;20485;-46